sensor_id;sensor_type;location;lat;lon;timestamp;temperature;humidity
10903;DHT22;5504;47.312;11.060;2022-08-18T00:02:08;21.30;81.80
10903;DHT22;5504;47.312;11.060;2022-08-18T00:04:34;21.20;81.80
10903;DHT22;5504;47.312;11.060;2022-08-18T00:07:07;21.20;81.80
10903;DHT22;5504;47.312;11.060;2022-08-18T00:09:35;21.10;82.60
10903;DHT22;5504;47.312;11.060;2022-08-18T00:12:05;21.00;81.90
10903;DHT22;5504;47.312;11.060;2022-08-18T00:14:32;21.00;81.20
10903;DHT22;5504;47.312;11.060;2022-08-18T00:16:58;21.00;81.10
10903;DHT22;5504;47.312;11.060;2022-08-18T00:19:25;21.00;81.90
10903;DHT22;5504;47.312;11.060;2022-08-18T00:21:51;21.00;81.90
10903;DHT22;5504;47.312;11.060;2022-08-18T00:24:16;21.00;82.60
10903;DHT22;5504;47.312;11.060;2022-08-18T00:26:42;20.90;82.90
10903;DHT22;5504;47.312;11.060;2022-08-18T00:29:08;20.80;83.10
10903;DHT22;5504;47.312;11.060;2022-08-18T00:31:34;20.70;83.40
10903;DHT22;5504;47.312;11.060;2022-08-18T00:34:00;20.70;83.80
10903;DHT22;5504;47.312;11.060;2022-08-18T00:36:26;20.60;83.80
10903;DHT22;5504;47.312;11.060;2022-08-18T00:38:52;20.30;83.20
10903;DHT22;5504;47.312;11.060;2022-08-18T00:41:20;20.30;83.80
10903;DHT22;5504;47.312;11.060;2022-08-18T00:43:48;20.30;84.10
10903;DHT22;5504;47.312;11.060;2022-08-18T00:46:18;20.30;85.50
10903;DHT22;5504;47.312;11.060;2022-08-18T00:48:44;20.20;85.10
10903;DHT22;5504;47.312;11.060;2022-08-18T00:56:28;20.20;85.60
10903;DHT22;5504;47.312;11.060;2022-08-18T01:01:52;20.00;85.60
10903;DHT22;5504;47.312;11.060;2022-08-18T01:04:24;20.10;85.80
10903;DHT22;5504;47.312;11.060;2022-08-18T01:06:57;20.10;86.20
10903;DHT22;5504;47.312;11.060;2022-08-18T01:09:25;20.00;85.80
10903;DHT22;5504;47.312;11.060;2022-08-18T01:11:51;20.00;86.40
10903;DHT22;5504;47.312;11.060;2022-08-18T01:14:17;20.00;86.70
10903;DHT22;5504;47.312;11.060;2022-08-18T01:16:49;19.90;86.90
10903;DHT22;5504;47.312;11.060;2022-08-18T01:19:35;19.90;87.20
10903;DHT22;5504;47.312;11.060;2022-08-18T01:22:36;19.90;87.30
10903;DHT22;5504;47.312;11.060;2022-08-18T01:25:05;19.90;86.90
10903;DHT22;5504;47.312;11.060;2022-08-18T01:27:50;19.70;86.90
10903;DHT22;5504;47.312;11.060;2022-08-18T01:30:17;19.70;87.70
10903;DHT22;5504;47.312;11.060;2022-08-18T01:32:43;19.70;88.20
10903;DHT22;5504;47.312;11.060;2022-08-18T01:35:12;19.70;88.40
10903;DHT22;5504;47.312;11.060;2022-08-18T01:37:39;19.70;87.90
10903;DHT22;5504;47.312;11.060;2022-08-18T01:40:07;19.70;88.10
10903;DHT22;5504;47.312;11.060;2022-08-18T01:42:34;19.60;88.30
10903;DHT22;5504;47.312;11.060;2022-08-18T01:44:59;19.50;88.60
10903;DHT22;5504;47.312;11.060;2022-08-18T01:47:28;19.40;88.40
10903;DHT22;5504;47.312;11.060;2022-08-18T01:49:53;19.30;89.10
10903;DHT22;5504;47.312;11.060;2022-08-18T01:52:23;19.30;89.50
10903;DHT22;5504;47.312;11.060;2022-08-18T01:54:50;19.30;90.20
10903;DHT22;5504;47.312;11.060;2022-08-18T01:57:17;19.30;90.10
10903;DHT22;5504;47.312;11.060;2022-08-18T01:59:44;19.40;89.20
10903;DHT22;5504;47.312;11.060;2022-08-18T02:02:13;19.60;88.50
10903;DHT22;5504;47.312;11.060;2022-08-18T02:04:39;19.40;89.20
10903;DHT22;5504;47.312;11.060;2022-08-18T02:07:09;19.30;89.90
10903;DHT22;5504;47.312;11.060;2022-08-18T02:09:36;19.30;90.00
10903;DHT22;5504;47.312;11.060;2022-08-18T02:12:03;19.30;89.80
10903;DHT22;5504;47.312;11.060;2022-08-18T02:14:30;19.20;90.00
10903;DHT22;5504;47.312;11.060;2022-08-18T02:17:00;19.20;90.30
10903;DHT22;5504;47.312;11.060;2022-08-18T02:19:26;19.20;90.30
10903;DHT22;5504;47.312;11.060;2022-08-18T02:21:52;19.20;90.30
10903;DHT22;5504;47.312;11.060;2022-08-18T02:24:18;19.30;90.10
10903;DHT22;5504;47.312;11.060;2022-08-18T02:26:44;19.20;89.90
10903;DHT22;5504;47.312;11.060;2022-08-18T02:29:10;19.00;90.00
10903;DHT22;5504;47.312;11.060;2022-08-18T02:31:35;19.00;90.70
10903;DHT22;5504;47.312;11.060;2022-08-18T02:34:01;19.00;90.60
10903;DHT22;5504;47.312;11.060;2022-08-18T02:36:27;19.00;90.60
10903;DHT22;5504;47.312;11.060;2022-08-18T02:38:53;18.90;90.80
10903;DHT22;5504;47.312;11.060;2022-08-18T02:41:19;18.90;90.70
10903;DHT22;5504;47.312;11.060;2022-08-18T02:43:46;18.90;91.10
10903;DHT22;5504;47.312;11.060;2022-08-18T02:46:13;18.90;90.90
10903;DHT22;5504;47.312;11.060;2022-08-18T02:48:38;18.90;91.20
10903;DHT22;5504;47.312;11.060;2022-08-18T02:51:13;18.90;90.90
10903;DHT22;5504;47.312;11.060;2022-08-18T02:53:42;18.80;90.90
10903;DHT22;5504;47.312;11.060;2022-08-18T02:56:18;18.80;91.10
10903;DHT22;5504;47.312;11.060;2022-08-18T02:59:13;18.80;91.20
10903;DHT22;5504;47.312;11.060;2022-08-18T03:01:43;18.80;91.30
10903;DHT22;5504;47.312;11.060;2022-08-18T03:04:11;18.80;91.40
10903;DHT22;5504;47.312;11.060;2022-08-18T03:06:37;18.80;91.50
10903;DHT22;5504;47.312;11.060;2022-08-18T03:09:08;18.70;91.20
10903;DHT22;5504;47.312;11.060;2022-08-18T03:11:34;18.70;91.60
10903;DHT22;5504;47.312;11.060;2022-08-18T03:14:00;18.60;91.30
10903;DHT22;5504;47.312;11.060;2022-08-18T03:16:26;18.60;91.10
10903;DHT22;5504;47.312;11.060;2022-08-18T03:18:58;18.60;91.20
10903;DHT22;5504;47.312;11.060;2022-08-18T03:21:25;18.60;91.50
10903;DHT22;5504;47.312;11.060;2022-08-18T03:23:53;18.50;91.60
10903;DHT22;5504;47.312;11.060;2022-08-18T03:26:20;18.50;91.80
10903;DHT22;5504;47.312;11.060;2022-08-18T03:28:50;18.60;91.40
10903;DHT22;5504;47.312;11.060;2022-08-18T03:31:18;18.70;91.10
10903;DHT22;5504;47.312;11.060;2022-08-18T03:33:45;18.60;91.20
10903;DHT22;5504;47.312;11.060;2022-08-18T03:36:18;18.40;91.60
10903;DHT22;5504;47.312;11.060;2022-08-18T03:38:45;18.30;91.80
10903;DHT22;5504;47.312;11.060;2022-08-18T03:41:13;18.30;91.80
10903;DHT22;5504;47.312;11.060;2022-08-18T03:43:40;18.30;92.10
10903;DHT22;5504;47.312;11.060;2022-08-18T03:46:08;18.30;92.40
10903;DHT22;5504;47.312;11.060;2022-08-18T03:48:35;18.30;92.30
10903;DHT22;5504;47.312;11.060;2022-08-18T03:51:13;18.30;92.20
10903;DHT22;5504;47.312;11.060;2022-08-18T03:53:39;18.10;92.60
10903;DHT22;5504;47.312;11.060;2022-08-18T03:56:13;18.10;92.80
10903;DHT22;5504;47.312;11.060;2022-08-18T03:58:44;18.20;92.50
10903;DHT22;5504;47.312;11.060;2022-08-18T04:01:14;18.30;92.50
10903;DHT22;5504;47.312;11.060;2022-08-18T04:03:45;18.10;92.80
10903;DHT22;5504;47.312;11.060;2022-08-18T04:06:25;18.00;92.60
10903;DHT22;5504;47.312;11.060;2022-08-18T04:08:56;18.20;92.30
10903;DHT22;5504;47.312;11.060;2022-08-18T04:11:23;18.20;92.30
10903;DHT22;5504;47.312;11.060;2022-08-18T04:13:49;18.30;92.40
10903;DHT22;5504;47.312;11.060;2022-08-18T04:16:16;18.30;92.00
10903;DHT22;5504;47.312;11.060;2022-08-18T04:18:42;18.50;91.60
10903;DHT22;5504;47.312;11.060;2022-08-18T04:21:10;18.40;91.80
10903;DHT22;5504;47.312;11.060;2022-08-18T04:23:38;18.30;92.20
10903;DHT22;5504;47.312;11.060;2022-08-18T04:26:06;18.30;92.30
10903;DHT22;5504;47.312;11.060;2022-08-18T04:28:32;18.30;92.50
10903;DHT22;5504;47.312;11.060;2022-08-18T04:30:58;18.30;92.90
10903;DHT22;5504;47.312;11.060;2022-08-18T04:33:27;18.30;92.40
10903;DHT22;5504;47.312;11.060;2022-08-18T04:35:54;18.30;92.50
10903;DHT22;5504;47.312;11.060;2022-08-18T04:38:21;18.40;92.80
10903;DHT22;5504;47.312;11.060;2022-08-18T04:40:46;18.60;92.20
10903;DHT22;5504;47.312;11.060;2022-08-18T04:43:12;18.50;92.40
10903;DHT22;5504;47.312;11.060;2022-08-18T04:45:46;18.50;92.30
10903;DHT22;5504;47.312;11.060;2022-08-18T04:48:12;18.50;92.50
10903;DHT22;5504;47.312;11.060;2022-08-18T04:50:40;18.60;92.80
10903;DHT22;5504;47.312;11.060;2022-08-18T04:53:06;18.60;92.50
10903;DHT22;5504;47.312;11.060;2022-08-18T04:55:52;18.70;91.90
10903;DHT22;5504;47.312;11.060;2022-08-18T04:58:19;18.70;91.80
10903;DHT22;5504;47.312;11.060;2022-08-18T05:00:45;18.80;91.80
10903;DHT22;5504;47.312;11.060;2022-08-18T05:03:12;18.70;92.00
10903;DHT22;5504;47.312;11.060;2022-08-18T05:05:38;18.60;92.30
10903;DHT22;5504;47.312;11.060;2022-08-18T05:08:04;18.70;92.20
10903;DHT22;5504;47.312;11.060;2022-08-18T05:10:30;18.70;92.20
10903;DHT22;5504;47.312;11.060;2022-08-18T05:12:56;18.80;92.20
10903;DHT22;5504;47.312;11.060;2022-08-18T05:15:22;18.80;92.40
10903;DHT22;5504;47.312;11.060;2022-08-18T05:17:47;18.80;92.80
10903;DHT22;5504;47.312;11.060;2022-08-18T05:20:13;18.80;92.70
10903;DHT22;5504;47.312;11.060;2022-08-18T05:22:41;18.80;92.60
10903;DHT22;5504;47.312;11.060;2022-08-18T05:25:09;18.70;92.60
10903;DHT22;5504;47.312;11.060;2022-08-18T05:27:38;18.80;92.70
10903;DHT22;5504;47.312;11.060;2022-08-18T05:30:06;18.80;93.00
10903;DHT22;5504;47.312;11.060;2022-08-18T05:32:34;18.70;93.20
10903;DHT22;5504;47.312;11.060;2022-08-18T05:35:11;18.80;93.10
10903;DHT22;5504;47.312;11.060;2022-08-18T05:37:59;18.80;93.20
10903;DHT22;5504;47.312;11.060;2022-08-18T05:40:28;18.80;93.10
10903;DHT22;5504;47.312;11.060;2022-08-18T05:42:57;18.90;92.90
10903;DHT22;5504;47.312;11.060;2022-08-18T05:45:24;19.00;92.70
10903;DHT22;5504;47.312;11.060;2022-08-18T05:47:50;19.10;92.60
10903;DHT22;5504;47.312;11.060;2022-08-18T05:50:21;19.20;92.20
10903;DHT22;5504;47.312;11.060;2022-08-18T05:53:00;19.20;91.80
10903;DHT22;5504;47.312;11.060;2022-08-18T05:56:22;19.20;92.60
10903;DHT22;5504;47.312;11.060;2022-08-18T05:59:00;19.10;93.20
10903;DHT22;5504;47.312;11.060;2022-08-18T06:01:33;19.10;93.30
10903;DHT22;5504;47.312;11.060;2022-08-18T06:04:14;19.00;92.60
10903;DHT22;5504;47.312;11.060;2022-08-18T06:06:42;19.20;93.20
10903;DHT22;5504;47.312;11.060;2022-08-18T06:09:12;19.30;93.10
10903;DHT22;5504;47.312;11.060;2022-08-18T06:11:42;19.40;93.00
10903;DHT22;5504;47.312;11.060;2022-08-18T06:14:08;19.40;92.70
10903;DHT22;5504;47.312;11.060;2022-08-18T06:17:01;19.50;93.00
10903;DHT22;5504;47.312;11.060;2022-08-18T06:27:27;19.80;92.90
10903;DHT22;5504;47.312;11.060;2022-08-18T06:30:07;19.80;92.00
10903;DHT22;5504;47.312;11.060;2022-08-18T06:32:58;19.90;92.10
10903;DHT22;5504;47.312;11.060;2022-08-18T06:35:45;20.10;92.60
10903;DHT22;5504;47.312;11.060;2022-08-18T06:43:52;20.60;93.00
10903;DHT22;5504;47.312;11.060;2022-08-18T06:46:45;20.60;92.80
10903;DHT22;5504;47.312;11.060;2022-08-18T06:49:11;20.70;92.10
10903;DHT22;5504;47.312;11.060;2022-08-18T06:51:38;20.90;92.40
10903;DHT22;5504;47.312;11.060;2022-08-18T06:54:26;21.10;92.20
10903;DHT22;5504;47.312;11.060;2022-08-18T06:56:53;21.30;91.20
10903;DHT22;5504;47.312;11.060;2022-08-18T06:59:29;21.50;90.20
10903;DHT22;5504;47.312;11.060;2022-08-18T07:02:19;21.60;89.20
10903;DHT22;5504;47.312;11.060;2022-08-18T07:05:03;21.90;90.20
10903;DHT22;5504;47.312;11.060;2022-08-18T07:07:37;22.10;90.00
10903;DHT22;5504;47.312;11.060;2022-08-18T07:10:28;22.30;90.30
10903;DHT22;5504;47.312;11.060;2022-08-18T07:15:36;22.60;85.90
10903;DHT22;5504;47.312;11.060;2022-08-18T07:18:04;22.50;85.40
10903;DHT22;5504;47.312;11.060;2022-08-18T07:20:44;22.60;85.20
10903;DHT22;5504;47.312;11.060;2022-08-18T07:23:23;22.40;85.00
10903;DHT22;5504;47.312;11.060;2022-08-18T07:25:58;22.60;85.90
10903;DHT22;5504;47.312;11.060;2022-08-18T07:28:34;22.90;84.40
10903;DHT22;5504;47.312;11.060;2022-08-18T07:34:10;23.40;83.30
10903;DHT22;5504;47.312;11.060;2022-08-18T07:36:43;23.50;82.80
10903;DHT22;5504;47.312;11.060;2022-08-18T07:44:38;23.70;78.80
10903;DHT22;5504;47.312;11.060;2022-08-18T07:49:40;23.70;79.70
10903;DHT22;5504;47.312;11.060;2022-08-18T07:57:22;23.50;81.20
10903;DHT22;5504;47.312;11.060;2022-08-18T08:08:24;23.20;82.10
10903;DHT22;5504;47.312;11.060;2022-08-18T08:17:09;23.50;81.60
10903;DHT22;5504;47.312;11.060;2022-08-18T08:31:33;23.50;78.60
10903;DHT22;5504;47.312;11.060;2022-08-18T08:37:06;23.90;79.20
10903;DHT22;5504;47.312;11.060;2022-08-18T08:42:24;25.70;76.30
10903;DHT22;5504;47.312;11.060;2022-08-18T08:44:59;26.10;74.60
10903;DHT22;5504;47.312;11.060;2022-08-18T08:49:59;26.90;69.20
10903;DHT22;5504;47.312;11.060;2022-08-18T08:55:04;27.20;65.20
10903;DHT22;5504;47.312;11.060;2022-08-18T08:57:36;27.40;65.10
10903;DHT22;5504;47.312;11.060;2022-08-18T09:00:07;27.20;66.70
10903;DHT22;5504;47.312;11.060;2022-08-18T09:05:18;27.50;67.20
10903;DHT22;5504;47.312;11.060;2022-08-18T09:08:05;27.70;65.70
10903;DHT22;5504;47.312;11.060;2022-08-18T09:19:20;28.10;65.40
10903;DHT22;5504;47.312;11.060;2022-08-18T09:21:59;27.90;64.80
10903;DHT22;5504;47.312;11.060;2022-08-18T09:24:31;28.20;63.30
10903;DHT22;5504;47.312;11.060;2022-08-18T09:27:14;28.00;67.30
10903;DHT22;5504;47.312;11.060;2022-08-18T09:29:57;28.10;61.20
10903;DHT22;5504;47.312;11.060;2022-08-18T09:35:16;28.90;64.70
10903;DHT22;5504;47.312;11.060;2022-08-18T09:38:05;29.60;61.10
10903;DHT22;5504;47.312;11.060;2022-08-18T09:40:55;30.20;64.40
10903;DHT22;5504;47.312;11.060;2022-08-18T09:52:45;30.10;61.60
10903;DHT22;5504;47.312;11.060;2022-08-18T09:57:32;29.50;58.00
10903;DHT22;5504;47.312;11.060;2022-08-18T10:07:56;29.40;59.00
10903;DHT22;5504;47.312;11.060;2022-08-18T10:10:52;29.20;59.40
10903;DHT22;5504;47.312;11.060;2022-08-18T10:21:27;29.40;54.60
10903;DHT22;5504;47.312;11.060;2022-08-18T10:34:40;31.10;56.00
10903;DHT22;5504;47.312;11.060;2022-08-18T10:39:43;29.80;53.80
10903;DHT22;5504;47.312;11.060;2022-08-18T10:44:43;30.00;55.30
10903;DHT22;5504;47.312;11.060;2022-08-18T10:47:23;29.80;53.50
10903;DHT22;5504;47.312;11.060;2022-08-18T10:49:49;30.00;55.80
10903;DHT22;5504;47.312;11.060;2022-08-18T10:55:08;30.10;56.20
10903;DHT22;5504;47.312;11.060;2022-08-18T11:06:08;29.90;57.30
10903;DHT22;5504;47.312;11.060;2022-08-18T11:08:43;30.10;56.80
10903;DHT22;5504;47.312;11.060;2022-08-18T11:11:10;30.40;57.50
10903;DHT22;5504;47.312;11.060;2022-08-18T11:19:21;30.10;55.90
10903;DHT22;5504;47.312;11.060;2022-08-18T11:21:49;30.10;56.50
10903;DHT22;5504;47.312;11.060;2022-08-18T11:24:24;30.10;56.30
10903;DHT22;5504;47.312;11.060;2022-08-18T11:31:56;30.10;55.60
10903;DHT22;5504;47.312;11.060;2022-08-18T11:34:33;30.00;55.30
10903;DHT22;5504;47.312;11.060;2022-08-18T11:37:06;30.00;55.30
10903;DHT22;5504;47.312;11.060;2022-08-18T11:39:32;29.90;56.00
10903;DHT22;5504;47.312;11.060;2022-08-18T11:41:58;29.80;56.20
10903;DHT22;5504;47.312;11.060;2022-08-18T11:44:29;29.90;56.30
10903;DHT22;5504;47.312;11.060;2022-08-18T11:47:13;30.00;55.50
10903;DHT22;5504;47.312;11.060;2022-08-18T11:49:52;29.90;53.40
10903;DHT22;5504;47.312;11.060;2022-08-18T11:52:23;29.70;52.30
10903;DHT22;5504;47.312;11.060;2022-08-18T11:54:50;29.40;53.50
10903;DHT22;5504;47.312;11.060;2022-08-18T11:57:39;29.60;53.00
10903;DHT22;5504;47.312;11.060;2022-08-18T12:05:51;29.00;54.60
10903;DHT22;5504;47.312;11.060;2022-08-18T12:11:17;29.20;52.60
10903;DHT22;5504;47.312;11.060;2022-08-18T12:13:45;28.60;52.00
10903;DHT22;5504;47.312;11.060;2022-08-18T12:16:29;28.40;52.60
10903;DHT22;5504;47.312;11.060;2022-08-18T12:18:55;28.20;55.30
10903;DHT22;5504;47.312;11.060;2022-08-18T12:21:22;28.40;54.30
10903;DHT22;5504;47.312;11.060;2022-08-18T12:23:48;28.20;53.60
10903;DHT22;5504;47.312;11.060;2022-08-18T12:26:13;28.20;55.10
10903;DHT22;5504;47.312;11.060;2022-08-18T12:28:39;28.20;54.50
10903;DHT22;5504;47.312;11.060;2022-08-18T12:31:06;28.20;56.00
10903;DHT22;5504;47.312;11.060;2022-08-18T12:33:33;28.10;55.90
10903;DHT22;5504;47.312;11.060;2022-08-18T12:36:00;28.00;56.30
10903;DHT22;5504;47.312;11.060;2022-08-18T12:38:26;27.90;56.20
10903;DHT22;5504;47.312;11.060;2022-08-18T12:40:52;27.80;56.20
10903;DHT22;5504;47.312;11.060;2022-08-18T12:43:17;27.50;56.00
10903;DHT22;5504;47.312;11.060;2022-08-18T12:45:43;27.00;56.50
10903;DHT22;5504;47.312;11.060;2022-08-18T12:48:09;26.80;57.80
10903;DHT22;5504;47.312;11.060;2022-08-18T12:50:37;26.70;58.70
10903;DHT22;5504;47.312;11.060;2022-08-18T12:53:02;26.50;59.00
10903;DHT22;5504;47.312;11.060;2022-08-18T12:55:33;26.40;59.30
10903;DHT22;5504;47.312;11.060;2022-08-18T12:57:59;26.20;59.70
10903;DHT22;5504;47.312;11.060;2022-08-18T13:00:25;26.10;60.50
10903;DHT22;5504;47.312;11.060;2022-08-18T13:02:50;26.10;60.80
10903;DHT22;5504;47.312;11.060;2022-08-18T13:05:16;25.90;61.10
10903;DHT22;5504;47.312;11.060;2022-08-18T13:07:44;25.90;61.20
10903;DHT22;5504;47.312;11.060;2022-08-18T13:10:09;25.80;59.10
10903;DHT22;5504;47.312;11.060;2022-08-18T13:12:35;25.70;58.90
10903;DHT22;5504;47.312;11.060;2022-08-18T13:15:02;25.50;58.00
10903;DHT22;5504;47.312;11.060;2022-08-18T13:17:30;25.50;58.70
10903;DHT22;5504;47.312;11.060;2022-08-18T13:19:56;25.50;59.00
10903;DHT22;5504;47.312;11.060;2022-08-18T13:22:22;25.50;58.60
10903;DHT22;5504;47.312;11.060;2022-08-18T13:24:48;25.50;58.10
10903;DHT22;5504;47.312;11.060;2022-08-18T13:27:15;25.20;59.70
10903;DHT22;5504;47.312;11.060;2022-08-18T13:29:41;25.10;57.80
10903;DHT22;5504;47.312;11.060;2022-08-18T13:32:07;24.90;58.20
10903;DHT22;5504;47.312;11.060;2022-08-18T13:34:34;25.00;58.40
10903;DHT22;5504;47.312;11.060;2022-08-18T13:36:59;24.90;57.50
10903;DHT22;5504;47.312;11.060;2022-08-18T13:39:25;24.90;58.40
10903;DHT22;5504;47.312;11.060;2022-08-18T13:41:53;24.90;59.80
10903;DHT22;5504;47.312;11.060;2022-08-18T13:44:20;24.80;60.80
10903;DHT22;5504;47.312;11.060;2022-08-18T13:46:47;24.70;61.00
10903;DHT22;5504;47.312;11.060;2022-08-18T13:49:15;24.60;62.80
10903;DHT22;5504;47.312;11.060;2022-08-18T13:51:45;24.50;62.60
10903;DHT22;5504;47.312;11.060;2022-08-18T13:54:27;24.20;63.70
10903;DHT22;5504;47.312;11.060;2022-08-18T13:56:54;24.10;64.90
10903;DHT22;5504;47.312;11.060;2022-08-18T13:59:20;24.10;65.30
10903;DHT22;5504;47.312;11.060;2022-08-18T14:01:48;24.10;66.80
10903;DHT22;5504;47.312;11.060;2022-08-18T14:04:14;24.00;66.10
10903;DHT22;5504;47.312;11.060;2022-08-18T14:06:40;23.90;67.50
10903;DHT22;5504;47.312;11.060;2022-08-18T14:09:07;23.70;67.40
10903;DHT22;5504;47.312;11.060;2022-08-18T14:11:34;23.60;68.90
10903;DHT22;5504;47.312;11.060;2022-08-18T14:14:03;23.60;69.20
10903;DHT22;5504;47.312;11.060;2022-08-18T14:16:30;23.50;70.80
10903;DHT22;5504;47.312;11.060;2022-08-18T14:18:55;23.50;69.90
10903;DHT22;5504;47.312;11.060;2022-08-18T14:21:48;23.50;71.30
10903;DHT22;5504;47.312;11.060;2022-08-18T14:24:33;23.60;71.80
10903;DHT22;5504;47.312;11.060;2022-08-18T14:27:18;23.70;71.50
10903;DHT22;5504;47.312;11.060;2022-08-18T14:29:45;23.70;71.80
10903;DHT22;5504;47.312;11.060;2022-08-18T14:32:13;23.70;75.50
10903;DHT22;5504;47.312;11.060;2022-08-18T14:34:43;23.70;76.90
10903;DHT22;5504;47.312;11.060;2022-08-18T14:37:10;23.70;78.20
10903;DHT22;5504;47.312;11.060;2022-08-18T14:39:35;23.70;79.50
10903;DHT22;5504;47.312;11.060;2022-08-18T14:42:02;23.50;78.60
10903;DHT22;5504;47.312;11.060;2022-08-18T14:44:29;23.40;78.90
10903;DHT22;5504;47.312;11.060;2022-08-18T14:46:54;23.30;79.50
10903;DHT22;5504;47.312;11.060;2022-08-18T14:49:25;23.20;82.70
10903;DHT22;5504;47.312;11.060;2022-08-18T14:51:51;23.20;81.70
10903;DHT22;5504;47.312;11.060;2022-08-18T14:54:17;23.40;79.60
10903;DHT22;5504;47.312;11.060;2022-08-18T14:56:43;23.30;83.30
10903;DHT22;5504;47.312;11.060;2022-08-18T14:59:08;23.20;85.60
10903;DHT22;5504;47.312;11.060;2022-08-18T15:01:36;23.10;85.60
10903;DHT22;5504;47.312;11.060;2022-08-18T15:04:03;23.10;86.80
10903;DHT22;5504;47.312;11.060;2022-08-18T15:06:28;23.30;86.10
10903;DHT22;5504;47.312;11.060;2022-08-18T15:08:55;23.30;85.30
10903;DHT22;5504;47.312;11.060;2022-08-18T15:11:20;23.40;85.40
10903;DHT22;5504;47.312;11.060;2022-08-18T15:13:46;23.20;87.50
10903;DHT22;5504;47.312;11.060;2022-08-18T15:16:14;23.00;88.00
10903;DHT22;5504;47.312;11.060;2022-08-18T15:18:41;22.90;89.70
10903;DHT22;5504;47.312;11.060;2022-08-18T15:21:07;22.80;90.40
10903;DHT22;5504;47.312;11.060;2022-08-18T15:23:52;22.90;91.30
10903;DHT22;5504;47.312;11.060;2022-08-18T15:26:36;22.80;90.90
10903;DHT22;5504;47.312;11.060;2022-08-18T15:29:03;22.90;90.10
10903;DHT22;5504;47.312;11.060;2022-08-18T15:31:36;23.00;89.40
10903;DHT22;5504;47.312;11.060;2022-08-18T15:34:02;23.20;88.40
10903;DHT22;5504;47.312;11.060;2022-08-18T15:36:29;23.50;88.60
10903;DHT22;5504;47.312;11.060;2022-08-18T15:38:58;23.50;87.30
10903;DHT22;5504;47.312;11.060;2022-08-18T15:41:41;23.50;88.40
10903;DHT22;5504;47.312;11.060;2022-08-18T15:44:10;23.60;88.40
10903;DHT22;5504;47.312;11.060;2022-08-18T15:46:38;23.70;85.40
10903;DHT22;5504;47.312;11.060;2022-08-18T15:49:05;23.70;85.40
10903;DHT22;5504;47.312;11.060;2022-08-18T15:51:37;23.40;87.10
10903;DHT22;5504;47.312;11.060;2022-08-18T15:54:04;22.90;87.60
10903;DHT22;5504;47.312;11.060;2022-08-18T15:56:31;22.30;90.00
10903;DHT22;5504;47.312;11.060;2022-08-18T15:58:57;22.30;90.80
10903;DHT22;5504;47.312;11.060;2022-08-18T16:01:24;22.60;90.30
10903;DHT22;5504;47.312;11.060;2022-08-18T16:03:51;22.80;88.80
10903;DHT22;5504;47.312;11.060;2022-08-18T16:06:23;23.10;86.80
10903;DHT22;5504;47.312;11.060;2022-08-18T16:08:51;23.00;86.60
10903;DHT22;5504;47.312;11.060;2022-08-18T16:11:17;22.90;87.00
10903;DHT22;5504;47.312;11.060;2022-08-18T16:13:44;23.10;88.30
10903;DHT22;5504;47.312;11.060;2022-08-18T16:16:22;23.20;88.70
10903;DHT22;5504;47.312;11.060;2022-08-18T16:18:50;23.40;89.50
10903;DHT22;5504;47.312;11.060;2022-08-18T16:21:21;23.50;89.40
10903;DHT22;5504;47.312;11.060;2022-08-18T16:23:50;23.60;88.40
10903;DHT22;5504;47.312;11.060;2022-08-18T16:26:17;23.70;86.70
10903;DHT22;5504;47.312;11.060;2022-08-18T16:28:45;23.70;86.00
10903;DHT22;5504;47.312;11.060;2022-08-18T16:31:13;23.50;87.70
10903;DHT22;5504;47.312;11.060;2022-08-18T16:33:43;23.30;89.00
10903;DHT22;5504;47.312;11.060;2022-08-18T16:36:11;23.30;88.80
10903;DHT22;5504;47.312;11.060;2022-08-18T16:38:39;23.30;89.70
10903;DHT22;5504;47.312;11.060;2022-08-18T16:41:13;23.30;90.50
10903;DHT22;5504;47.312;11.060;2022-08-18T16:43:43;23.30;90.80
10903;DHT22;5504;47.312;11.060;2022-08-18T16:46:15;23.30;91.00
10903;DHT22;5504;47.312;11.060;2022-08-18T16:48:41;23.20;90.80
10903;DHT22;5504;47.312;11.060;2022-08-18T16:51:12;23.20;90.80
10903;DHT22;5504;47.312;11.060;2022-08-18T16:53:38;23.20;90.50
10903;DHT22;5504;47.312;11.060;2022-08-18T16:56:10;23.20;90.60
10903;DHT22;5504;47.312;11.060;2022-08-18T16:58:36;23.20;90.80
10903;DHT22;5504;47.312;11.060;2022-08-18T17:01:20;23.10;91.20
10903;DHT22;5504;47.312;11.060;2022-08-18T17:04:04;23.10;91.10
10903;DHT22;5504;47.312;11.060;2022-08-18T17:06:32;23.00;91.50
10903;DHT22;5504;47.312;11.060;2022-08-18T17:08:58;22.90;91.30
10903;DHT22;5504;47.312;11.060;2022-08-18T17:11:25;22.80;91.30
10903;DHT22;5504;47.312;11.060;2022-08-18T17:13:56;22.70;91.40
10903;DHT22;5504;47.312;11.060;2022-08-18T17:16:24;22.60;91.20
10903;DHT22;5504;47.312;11.060;2022-08-18T17:18:51;22.60;90.90
10903;DHT22;5504;47.312;11.060;2022-08-18T17:21:19;22.50;90.60
10903;DHT22;5504;47.312;11.060;2022-08-18T17:23:47;22.50;91.00
10903;DHT22;5504;47.312;11.060;2022-08-18T17:31:41;22.20;91.00
10903;DHT22;5504;47.312;11.060;2022-08-18T17:34:11;22.10;91.30
10903;DHT22;5504;47.312;11.060;2022-08-18T17:36:52;22.20;90.80
10903;DHT22;5504;47.312;11.060;2022-08-18T17:39:26;22.20;90.70
10903;DHT22;5504;47.312;11.060;2022-08-18T17:41:53;22.10;90.80
10903;DHT22;5504;47.312;11.060;2022-08-18T17:44:40;22.00;90.80
10903;DHT22;5504;47.312;11.060;2022-08-18T17:47:07;21.90;91.40
10903;DHT22;5504;47.312;11.060;2022-08-18T17:49:42;21.80;91.60
10903;DHT22;5504;47.312;11.060;2022-08-18T17:52:29;21.70;91.70
10903;DHT22;5504;47.312;11.060;2022-08-18T17:55:04;21.60;92.00
10903;DHT22;5504;47.312;11.060;2022-08-18T17:57:36;21.50;92.20
10903;DHT22;5504;47.312;11.060;2022-08-18T18:00:09;21.40;92.40
10903;DHT22;5504;47.312;11.060;2022-08-18T18:02:37;21.30;92.30
10903;DHT22;5504;47.312;11.060;2022-08-18T18:05:07;21.30;92.40
10903;DHT22;5504;47.312;11.060;2022-08-18T18:10:41;21.10;92.70
10903;DHT22;5504;47.312;11.060;2022-08-18T18:13:29;21.10;92.90
10903;DHT22;5504;47.312;11.060;2022-08-18T18:16:01;21.10;92.90
10903;DHT22;5504;47.312;11.060;2022-08-18T18:18:43;21.00;92.90
10903;DHT22;5504;47.312;11.060;2022-08-18T18:21:20;21.00;92.50
10903;DHT22;5504;47.312;11.060;2022-08-18T18:23:50;21.00;92.40
10903;DHT22;5504;47.312;11.060;2022-08-18T18:26:32;20.80;92.70
10903;DHT22;5504;47.312;11.060;2022-08-18T18:31:39;20.70;93.10
10903;DHT22;5504;47.312;11.060;2022-08-18T18:34:17;20.50;93.30
10903;DHT22;5504;47.312;11.060;2022-08-18T18:36:46;20.40;93.70
10903;DHT22;5504;47.312;11.060;2022-08-18T18:39:27;20.40;93.90
10903;DHT22;5504;47.312;11.060;2022-08-18T18:41:55;20.40;93.80
10903;DHT22;5504;47.312;11.060;2022-08-18T18:44:32;20.30;93.60
10903;DHT22;5504;47.312;11.060;2022-08-18T18:47:10;20.30;93.70
10903;DHT22;5504;47.312;11.060;2022-08-18T18:49:46;20.10;94.20